Deal, New Jersey
Current Conditions -  °F | °C
As of 1:15 PM on Tuesday 21 Oct 2014 (Local Time) from KBLM Reporting Station
Thunderstorm Thunderstorm  
Wind Chill: 61°   Ceiling: 6000
Heat Index: 61°   Visibility: 10mi
Dew Point: 52°   Wind: 0mph
Humidity: 72%   Direction: NA
Pressure: 29.84"   Gusts: NA
Location:  40.24°N, 74°W
Report Text: KBLM 211715Z AUTO 00000KT 10SM VCTS FEW022 SCT036 OVC060 16/11 A2984 RMK AO1 LTG DSNT S
Loading
Personal Weather Stations






























Interactive Weather Map New forecast layout! Learn more

10-Day Weather Forecast

Advertisements
Track Severe Weather on mobile